Pagrindinis puslapis
METAR-TAF:

METAR-TAF

Oro uostai :

Parma, Italija

platuma: 44-49-17N, ilguma: 010-17-41E, Aukštis: 50 m

Dabartinis oras

Ataskaita buvo paskelbta 1 valandą ir 9 minutes, ne 09:50 UTC
Vėjas 7 kt iš Rytų, svyruoja nuo Šiaurės/Šiaurės Rytų ir Pietryčių
Temperatūra 18°C
Drėgmė 73%
Slėgis 1025 hPa
Matomumas 10 km arba daugiau
nėra debesų žemiau 1500 m ir nėra kamuolinių lietaus debesų

METAR: LIMP 210950Z 08007KT 020V130 CAVOK 18/13 Q1025

Laikas: 12:59 (10:59 UTC)

Prognozė

Ataskaita buvo paskelbta 5 valandos ir 59 minutes, ne 05:00 UTC
Prognozė galioja nuo 21 metu 06 UTC su 22 metu 06 UTC
Vėjas 6 kt nuo kintamojo kryptimis
Matomumas 10 km arba daugiau
nėra debesų žemiau 1500 m ir nėra kamuolinių lietaus debesų

TAF: LIMP 210500Z 2106/2206 VRB06KT CAVOK

Orai ataskaitas ir orų prognozės (METAR, TAF).

turimą stotys yra geltonos ir raudonos taškus žemėlapyje.

Perkelti pele per norėdami pamatyti stoties vardą.

Tada spustelėkite, norėdami matyti oro stebėjimo ir prognozės.

Norėdami pakeisti žemėlapį: spustelėkite ant žalios mygtukų su juodo kryžiaus žemyn,; žalią mygtuką su brūkšneliu, jei norite nutolinti; arba žalių rodyklių gretimoms žemėlapius.


METAR-TAF: